createdAt,value
2022-08-19T00:00:22.200Z,25.18
2022-08-19T00:01:28.855Z,25.16
2022-08-19T00:02:31.938Z,25.18
2022-08-19T00:03:33.603Z,25.12
2022-08-19T00:04:37.677Z,25.08
2022-08-19T00:05:39.587Z,25.07
2022-08-19T00:06:43.448Z,25.01
2022-08-19T00:07:45.126Z,25.02
2022-08-19T00:08:46.850Z,24.95
2022-08-19T00:09:48.481Z,24.93
2022-08-19T00:10:50.386Z,24.97
2022-08-19T00:11:54.040Z,24.92
2022-08-19T00:12:55.956Z,24.80
2022-08-19T00:13:58.194Z,24.82
2022-08-19T00:14:59.886Z,24.76
2022-08-19T00:16:02.134Z,24.80
2022-08-19T00:17:04.438Z,24.82
2022-08-19T00:18:06.115Z,24.80
2022-08-19T00:19:08.701Z,24.62
2022-08-19T00:20:13.647Z,24.64
2022-08-19T00:21:16.734Z,24.52
2022-08-19T00:22:19.174Z,24.54
2022-08-19T00:23:21.205Z,24.53
2022-08-19T00:24:23.623Z,24.57
2022-08-19T00:25:30.048Z,24.55
2022-08-19T00:26:32.640Z,24.52
2022-08-19T00:27:35.344Z,24.42
2022-08-19T00:28:37.883Z,24.32
2022-08-19T00:29:39.763Z,24.37
2022-08-19T00:30:41.889Z,24.33
2022-08-19T00:31:44.726Z,24.13
2022-08-19T00:32:46.799Z,24.22
2022-08-19T00:33:51.388Z,24.20
2022-08-19T00:34:53.768Z,24.28
2022-08-19T00:35:56.362Z,24.25
2022-08-19T00:36:58.704Z,24.31
2022-08-19T00:38:00.557Z,24.16
2022-08-19T00:39:02.287Z,24.30
2022-08-19T00:40:06.686Z,24.41
2022-08-19T00:41:09.830Z,24.33
2022-08-19T00:42:11.728Z,24.23
2022-08-19T00:43:14.777Z,24.15
2022-08-19T00:44:27.125Z,24.23
2022-08-19T00:45:32.641Z,24.24
2022-08-19T00:46:41.047Z,24.29
2022-08-19T00:47:42.870Z,24.39
2022-08-19T00:48:44.637Z,24.48
2022-08-19T00:49:52.498Z,24.47
2022-08-19T00:50:55.264Z,24.45
2022-08-19T00:52:08.226Z,24.44
2022-08-19T00:53:13.094Z,24.49
2022-08-19T00:54:16.051Z,24.54
2022-08-19T00:55:25.107Z,24.36
2022-08-19T00:56:27.974Z,24.24
2022-08-19T00:57:42.875Z,24.31
2022-08-19T00:58:45.883Z,24.28
2022-08-19T01:00:01.967Z,24.33
2022-08-19T01:01:06.231Z,24.40
2022-08-19T01:02:08.016Z,24.41
2022-08-19T01:03:13.684Z,24.38
2022-08-19T01:04:15.298Z,24.37
2022-08-19T01:05:21.951Z,24.30
2022-08-19T01:06:24.662Z,24.03
2022-08-19T01:07:26.407Z,23.93
2022-08-19T01:08:28.053Z,23.71
2022-08-19T01:09:30.985Z,23.70
2022-08-19T01:10:40.293Z,23.40
2022-08-19T01:11:44.977Z,23.36
2022-08-19T01:12:48.195Z,23.37
2022-08-19T01:13:53.195Z,23.25
2022-08-19T01:14:56.389Z,23.17
2022-08-19T01:16:05.658Z,23.12
2022-08-19T01:17:11.047Z,23.19
2022-08-19T01:18:16.277Z,23.27
2022-08-19T01:19:28.599Z,23.29
2022-08-19T01:20:30.303Z,23.16
2022-08-19T01:21:38.733Z,23.16
2022-08-19T01:22:47.537Z,23.32
2022-08-19T01:23:49.432Z,23.50
2022-08-19T01:24:52.812Z,23.70
2022-08-19T01:25:57.052Z,23.63
2022-08-19T01:27:00.894Z,23.71
2022-08-19T01:28:09.890Z,23.62
2022-08-19T01:29:12.966Z,23.66
2022-08-19T01:30:23.421Z,23.59
2022-08-19T01:31:32.559Z,23.62
2022-08-19T01:32:34.886Z,23.68
2022-08-19T01:33:36.684Z,23.69
2022-08-19T01:34:38.679Z,23.75
2022-08-19T01:35:41.935Z,23.59
2022-08-19T01:36:50.091Z,23.55
2022-08-19T01:37:57.615Z,23.64
2022-08-19T01:39:00.944Z,23.87
2022-08-19T01:40:07.545Z,23.96
2022-08-19T01:41:12.996Z,24.01
2022-08-19T01:42:14.655Z,24.10
2022-08-19T01:43:16.524Z,24.18
2022-08-19T01:44:21.192Z,24.25
2022-08-19T01:45:25.691Z,24.31
2022-08-19T01:46:28.151Z,24.40
2022-08-19T01:47:29.857Z,24.50
2022-08-19T01:48:38.497Z,24.54
2022-08-19T01:49:40.233Z,24.57
2022-08-19T01:50:42.681Z,24.59
2022-08-19T01:51:44.425Z,24.67
2022-08-19T01:52:46.898Z,24.67
2022-08-19T01:54:00.939Z,24.60
2022-08-19T01:55:02.616Z,24.58
2022-08-19T01:56:05.219Z,24.58
2022-08-19T01:57:12.141Z,24.58
2022-08-19T01:58:19.673Z,24.51
2022-08-19T01:59:23.979Z,24.53
2022-08-19T02:00:29.026Z,24.55
2022-08-19T02:01:33.074Z,24.52
2022-08-19T02:02:34.982Z,24.50
2022-08-19T02:03:36.718Z,24.52
2022-08-19T02:04:39.555Z,24.51
2022-08-19T02:05:42.019Z,24.42
2022-08-19T02:06:43.827Z,24.36
2022-08-19T02:07:45.830Z,24.29
2022-08-19T02:08:48.751Z,24.30
2022-08-19T02:09:53.056Z,24.29
2022-08-19T02:10:54.860Z,24.16
2022-08-19T02:11:57.106Z,24.14
2022-08-19T02:12:59.111Z,24.15
2022-08-19T02:14:06.653Z,24.17
2022-08-19T02:15:08.883Z,24.20
2022-08-19T02:16:10.885Z,24.16
2022-08-19T02:17:12.938Z,24.10
2022-08-19T02:18:15.301Z,24.03
2022-08-19T02:19:17.208Z,24.07
2022-08-19T02:20:19.015Z,23.98
2022-08-19T02:21:22.983Z,23.82
2022-08-19T02:22:26.692Z,23.76
2022-08-19T02:23:28.424Z,23.74
2022-08-19T02:24:30.111Z,23.65
2022-08-19T02:25:32.055Z,23.53
2022-08-19T02:26:34.148Z,23.46
2022-08-19T02:27:35.898Z,23.39
2022-08-19T02:28:37.574Z,23.38
2022-08-19T02:29:39.230Z,23.29
2022-08-19T02:30:43.226Z,23.26
2022-08-19T02:31:45.458Z,23.21
2022-08-19T02:32:47.709Z,23.21
2022-08-19T02:33:49.637Z,23.12
2022-08-19T02:34:51.498Z,23.13
2022-08-19T02:35:53.276Z,22.99
2022-08-19T02:36:55.201Z,22.86
2022-08-19T02:38:15.577Z,22.71
2022-08-19T02:39:17.454Z,22.51
2022-08-19T02:40:19.526Z,22.41
2022-08-19T02:41:26.755Z,22.42
2022-08-19T02:42:29.014Z,22.41
2022-08-19T02:43:34.463Z,22.31
2022-08-19T02:44:36.311Z,22.30
2022-08-19T02:45:41.569Z,22.33
2022-08-19T02:46:45.894Z,22.37
2022-08-19T02:47:47.726Z,22.35
2022-08-19T02:48:52.556Z,22.25
2022-08-19T02:49:54.160Z,22.19
2022-08-19T02:50:56.384Z,22.09
2022-08-19T02:51:58.117Z,22.15
2022-08-19T02:52:59.827Z,22.13
2022-08-19T02:54:02.430Z,22.15
2022-08-19T02:55:04.989Z,22.13
2022-08-19T02:56:08.816Z,22.27
2022-08-19T02:57:10.753Z,22.23
2022-08-19T02:58:13.315Z,22.30
2022-08-19T02:59:15.091Z,22.27
2022-08-19T03:00:17.488Z,22.26
2022-08-19T03:01:28.165Z,22.23
2022-08-19T03:02:29.926Z,22.25
2022-08-19T03:03:32.401Z,22.30
2022-08-19T03:04:34.437Z,22.30
2022-08-19T03:05:48.248Z,22.28
2022-08-19T03:07:02.565Z,22.30
2022-08-19T03:08:13.600Z,22.26
2022-08-19T03:09:15.654Z,22.28
2022-08-19T03:10:17.804Z,22.32
2022-08-19T03:11:21.398Z,22.34
2022-08-19T03:12:23.285Z,22.33
2022-08-19T03:13:24.991Z,22.23
2022-08-19T03:14:26.838Z,22.21
2022-08-19T03:15:28.807Z,22.24
2022-08-19T03:16:33.147Z,22.30
2022-08-19T03:17:36.230Z,22.35
2022-08-19T03:18:38.372Z,22.34
2022-08-19T03:19:40.355Z,22.33
2022-08-19T03:20:48.965Z,22.33
2022-08-19T03:21:51.760Z,22.36
2022-08-19T03:22:53.569Z,22.35
2022-08-19T03:23:56.587Z,22.38
2022-08-19T03:24:58.400Z,22.39
2022-08-19T03:26:15.984Z,22.38
2022-08-19T03:27:18.838Z,22.36
2022-08-19T03:28:22.082Z,22.30
2022-08-19T03:29:28.349Z,22.23
2022-08-19T03:30:33.178Z,22.24
2022-08-19T03:31:44.942Z,22.19
2022-08-19T03:32:57.051Z,22.16
2022-08-19T03:33:59.283Z,22.20
2022-08-19T03:35:01.282Z,22.21
2022-08-19T03:36:09.341Z,22.21
2022-08-19T03:37:15.389Z,22.19
2022-08-19T03:38:17.069Z,22.24
2022-08-19T03:39:19.253Z,22.25
2022-08-19T03:40:21.149Z,22.29
2022-08-19T03:41:27.067Z,22.27
2022-08-19T03:42:49.427Z,22.33
2022-08-19T03:43:52.711Z,22.24
2022-08-19T03:44:54.505Z,22.19
2022-08-19T03:46:08.069Z,22.14
2022-08-19T03:47:09.862Z,22.06
2022-08-19T03:48:11.539Z,22.02
2022-08-19T03:49:13.961Z,21.96
2022-08-19T03:50:17.288Z,21.83
2022-08-19T03:51:30.862Z,21.82
2022-08-19T03:52:32.956Z,21.84
2022-08-19T03:53:36.734Z,21.91
2022-08-19T03:54:39.368Z,21.88
2022-08-19T03:55:42.756Z,21.88
2022-08-19T03:56:45.754Z,21.86
2022-08-19T03:57:49.604Z,21.83
2022-08-19T03:59:53.365Z,21.79
2022-08-19T04:00:58.105Z,21.77
2022-08-19T04:02:02.216Z,21.74
2022-08-19T04:03:04.256Z,21.72
2022-08-19T04:04:06.282Z,21.73
2022-08-19T04:05:09.253Z,21.78
2022-08-19T04:06:23.852Z,21.75
2022-08-19T04:07:25.861Z,21.74
2022-08-19T04:08:27.911Z,21.80
2022-08-19T04:09:29.888Z,21.91
2022-08-19T04:10:32.293Z,21.94
2022-08-19T04:11:44.634Z,21.96
2022-08-19T04:12:47.346Z,21.98
2022-08-19T04:13:53.474Z,22.02
2022-08-19T04:14:55.468Z,21.95
2022-08-19T04:15:57.549Z,21.95
2022-08-19T04:17:01.169Z,21.94
2022-08-19T04:18:03.065Z,21.98
2022-08-19T04:19:06.030Z,22.03
2022-08-19T04:20:08.323Z,22.07
2022-08-19T04:21:17.402Z,22.04
2022-08-19T04:22:19.603Z,21.96
2022-08-19T04:23:21.262Z,21.91
2022-08-19T04:24:23.974Z,21.84
2022-08-19T04:25:25.615Z,21.81
2022-08-19T04:26:33.229Z,21.90
2022-08-19T04:28:37.760Z,21.84
2022-08-19T04:29:40.500Z,21.87
2022-08-19T04:30:50.895Z,21.87
2022-08-19T04:31:54.745Z,21.88
2022-08-19T04:32:56.363Z,21.96
2022-08-19T04:34:00.936Z,21.99
2022-08-19T04:35:16.805Z,22.04
2022-08-19T04:36:23.037Z,22.17
2022-08-19T04:37:25.681Z,22.13
2022-08-19T04:38:27.315Z,22.18
2022-08-19T04:39:49.884Z,22.18
2022-08-19T04:41:11.632Z,22.21
2022-08-19T04:42:33.022Z,22.27
2022-08-19T04:43:37.224Z,22.34
2022-08-19T04:44:45.991Z,22.35
2022-08-19T04:45:48.811Z,22.45
2022-08-19T04:46:52.134Z,22.44
2022-08-19T04:48:26.449Z,22.44
2022-08-19T04:49:23.298Z,22.46
2022-08-19T04:50:28.478Z,22.45
2022-08-19T04:51:32.225Z,22.44
2022-08-19T04:52:34.917Z,22.39
2022-08-19T04:53:38.507Z,22.38
2022-08-19T04:54:40.226Z,22.38
2022-08-19T04:55:43.431Z,22.44
2022-08-19T04:56:45.225Z,22.41
2022-08-19T04:57:47.054Z,22.45
2022-08-19T04:58:51.552Z,22.46
2022-08-19T04:59:56.925Z,22.50
2022-08-19T05:01:01.001Z,22.48
2022-08-19T05:02:03.771Z,22.49
2022-08-19T05:03:07.780Z,22.54
2022-08-19T05:04:10.247Z,22.55
2022-08-19T05:05:12.085Z,22.47
2022-08-19T05:06:16.418Z,22.38
2022-08-19T05:07:18.187Z,22.35
2022-08-19T05:08:30.969Z,22.31
2022-08-19T05:09:56.728Z,22.20
2022-08-19T05:10:55.115Z,22.13
2022-08-19T05:11:56.847Z,22.17
2022-08-19T05:12:58.639Z,22.22
2022-08-19T05:14:00.667Z,22.19
2022-08-19T05:15:04.807Z,22.19
2022-08-19T05:16:07.609Z,22.24
2022-08-19T05:17:26.629Z,22.31
2022-08-19T05:18:47.965Z,22.42
2022-08-19T05:20:08.206Z,22.52
2022-08-19T05:21:30.962Z,22.57
2022-08-19T05:22:35.568Z,22.61
2022-08-19T05:23:37.339Z,22.55
2022-08-19T05:24:56.463Z,22.42
2022-08-19T05:26:01.132Z,22.41
2022-08-19T05:27:05.379Z,22.45
2022-08-19T05:28:07.009Z,22.38
2022-08-19T05:29:10.330Z,22.35
2022-08-19T05:30:12.845Z,22.40
2022-08-19T05:31:14.752Z,22.33
2022-08-19T05:32:17.307Z,22.33
2022-08-19T05:33:19.564Z,22.36
2022-08-19T05:34:23.030Z,22.37
2022-08-19T05:35:25.180Z,22.41
2022-08-19T05:36:27.957Z,22.43
2022-08-19T05:37:29.834Z,22.42
2022-08-19T05:38:31.458Z,22.51
2022-08-19T05:39:36.520Z,22.55
2022-08-19T05:40:39.787Z,22.61
2022-08-19T05:41:47.447Z,22.63
2022-08-19T05:42:51.381Z,22.66
2022-08-19T05:43:58.608Z,22.58
2022-08-19T05:45:00.317Z,22.53
2022-08-19T05:46:02.604Z,22.58
2022-08-19T05:47:07.449Z,22.55
2022-08-19T05:48:12.164Z,22.55
2022-08-19T05:49:16.647Z,22.60
2022-08-19T05:50:18.582Z,22.56
2022-08-19T05:51:20.427Z,22.60
2022-08-19T05:52:25.781Z,22.64
2022-08-19T05:53:28.007Z,22.58
2022-08-19T05:54:29.662Z,22.60
2022-08-19T05:55:31.940Z,22.60
2022-08-19T05:56:36.658Z,22.64
2022-08-19T05:57:38.597Z,22.59
2022-08-19T05:58:40.350Z,22.66
2022-08-19T05:59:42.938Z,22.78
2022-08-19T06:00:46.065Z,22.88
2022-08-19T06:01:51.478Z,22.98
2022-08-19T06:02:53.496Z,23.05
2022-08-19T06:03:55.269Z,23.12
2022-08-19T06:04:57.014Z,23.18
2022-08-19T06:06:00.319Z,23.25
2022-08-19T06:07:12.676Z,23.31
2022-08-19T06:08:14.864Z,23.50
2022-08-19T06:09:16.545Z,23.65
2022-08-19T06:10:18.309Z,23.83
2022-08-19T06:11:33.657Z,23.99
2022-08-19T06:12:36.530Z,24.04
2022-08-19T06:13:38.173Z,24.00
2022-08-19T06:14:41.875Z,24.08
2022-08-19T06:15:45.301Z,24.14
2022-08-19T06:16:47.029Z,24.23
2022-08-19T06:17:48.956Z,24.31
2022-08-19T06:18:55.058Z,24.37
2022-08-19T06:19:57.237Z,24.43
2022-08-19T06:20:58.996Z,24.44
2022-08-19T06:22:01.118Z,24.40
2022-08-19T06:23:04.181Z,24.38
2022-08-19T06:24:07.681Z,24.33
2022-08-19T06:25:12.598Z,24.31
2022-08-19T06:26:16.332Z,24.33
2022-08-19T06:27:17.942Z,24.32
2022-08-19T06:28:20.302Z,24.25
2022-08-19T06:29:25.853Z,24.22
2022-08-19T06:30:28.119Z,24.20
2022-08-19T06:31:32.322Z,24.17
2022-08-19T06:32:34.103Z,24.08
2022-08-19T06:33:36.736Z,24.16
2022-08-19T06:34:39.114Z,24.15
2022-08-19T06:35:42.665Z,24.21
2022-08-19T06:36:52.161Z,24.27
2022-08-19T06:37:54.646Z,24.30
2022-08-19T06:39:00.085Z,23.98
2022-08-19T06:40:01.885Z,23.94
2022-08-19T06:41:07.328Z,23.97
2022-08-19T06:42:12.581Z,23.91
2022-08-19T06:43:16.528Z,23.80
2022-08-19T06:44:22.398Z,23.95
2022-08-19T06:45:34.438Z,24.01
2022-08-19T06:46:38.826Z,24.19
2022-08-19T06:47:44.845Z,24.47
2022-08-19T06:48:47.829Z,24.68
2022-08-19T06:49:49.781Z,24.79
2022-08-19T06:50:52.799Z,24.89
2022-08-19T06:51:54.496Z,25.00
2022-08-19T06:52:56.509Z,25.04
2022-08-19T06:53:58.789Z,25.10
2022-08-19T06:55:01.480Z,25.09
2022-08-19T06:56:07.808Z,25.09
2022-08-19T06:57:14.295Z,25.02
2022-08-19T06:58:16.342Z,25.09
2022-08-19T06:59:23.886Z,25.12
2022-08-19T07:00:25.567Z,25.12
2022-08-19T07:01:27.765Z,25.08
2022-08-19T07:02:29.767Z,25.07
2022-08-19T07:03:33.965Z,25.03
2022-08-19T07:04:42.075Z,25.04
2022-08-19T07:05:45.797Z,25.11
2022-08-19T07:06:54.873Z,25.09
2022-08-19T07:08:01.643Z,25.13
2022-08-19T07:09:08.217Z,25.16
2022-08-19T07:10:10.775Z,25.18
2022-08-19T07:11:14.878Z,25.33
2022-08-19T07:12:16.565Z,25.48
2022-08-19T07:13:18.264Z,25.53
2022-08-19T07:14:22.415Z,25.56
2022-08-19T07:15:24.511Z,25.45
2022-08-19T07:16:28.871Z,25.36
2022-08-19T07:17:31.297Z,25.46
2022-08-19T07:18:33.185Z,25.49
2022-08-19T07:19:35.500Z,25.52
2022-08-19T07:20:38.074Z,25.50
2022-08-19T07:21:42.374Z,25.47
2022-08-19T07:22:44.041Z,25.41
2022-08-19T07:23:46.509Z,25.42
2022-08-19T07:24:51.118Z,25.46
2022-08-19T07:25:53.493Z,25.47
2022-08-19T07:27:02.679Z,25.35
2022-08-19T07:28:04.916Z,25.23
2022-08-19T07:29:07.401Z,25.14
2022-08-19T07:30:14.462Z,25.12
2022-08-19T07:31:25.486Z,25.31
2022-08-19T07:32:27.887Z,25.41
2022-08-19T07:33:33.376Z,25.59
2022-08-19T07:34:38.516Z,25.54
2022-08-19T07:35:42.263Z,25.36
2022-08-19T07:36:44.833Z,25.31
2022-08-19T07:37:47.155Z,25.27
2022-08-19T07:38:51.219Z,25.25
2022-08-19T07:39:52.953Z,25.23
2022-08-19T07:40:55.163Z,25.19
2022-08-19T07:41:58.637Z,24.92
2022-08-19T07:43:00.320Z,24.93
2022-08-19T07:44:04.817Z,24.88
2022-08-19T07:45:08.150Z,24.86
2022-08-19T07:47:47.989Z,25.03
2022-08-19T07:48:42.438Z,25.00
2022-08-19T07:49:44.134Z,25.07
2022-08-19T07:50:46.499Z,25.03
2022-08-19T07:51:51.521Z,24.82
2022-08-19T07:52:53.381Z,24.76
2022-08-19T07:53:55.602Z,24.48
2022-08-19T07:54:58.379Z,24.40
2022-08-19T07:56:04.631Z,24.42
2022-08-19T07:57:07.821Z,24.50
2022-08-19T07:58:09.862Z,24.51
2022-08-19T07:59:11.554Z,24.45
2022-08-19T08:00:13.903Z,24.37
2022-08-19T08:01:22.316Z,24.37
2022-08-19T08:02:24.008Z,24.36
2022-08-19T08:03:46.972Z,24.39
2022-08-19T08:05:07.031Z,24.43
2022-08-19T08:06:28.047Z,24.52
2022-08-19T08:07:48.869Z,24.50
2022-08-19T08:09:09.257Z,24.54
2022-08-19T08:10:21.324Z,24.66
2022-08-19T08:11:24.096Z,24.61
2022-08-19T08:12:35.026Z,24.61
2022-08-19T08:13:39.119Z,24.57
2022-08-19T08:14:48.616Z,24.62
2022-08-19T08:15:51.654Z,24.63
2022-08-19T08:16:54.846Z,24.73
2022-08-19T08:17:58.589Z,24.80
2022-08-19T08:19:01.281Z,24.83
2022-08-19T08:20:07.825Z,24.84
2022-08-19T08:21:09.846Z,24.80
2022-08-19T08:22:35.263Z,24.73
2022-08-19T08:23:37.077Z,24.69
2022-08-19T08:24:41.560Z,24.62
2022-08-19T08:25:43.253Z,24.68
2022-08-19T08:26:47.001Z,24.66
2022-08-19T08:27:55.341Z,24.63
2022-08-19T08:28:57.510Z,24.56
2022-08-19T08:29:59.381Z,24.49
2022-08-19T08:31:09.554Z,24.38
2022-08-19T08:32:14.184Z,24.43
2022-08-19T08:33:32.712Z,24.39
2022-08-19T08:34:37.996Z,24.39
2022-08-19T08:35:46.513Z,24.38
2022-08-19T08:36:48.535Z,24.41
2022-08-19T08:37:53.252Z,24.50
2022-08-19T08:40:00.241Z,24.56
2022-08-19T08:41:20.226Z,24.56
2022-08-19T08:42:55.857Z,24.54
2022-08-19T08:43:58.231Z,24.54
2022-08-19T08:45:04.292Z,24.56
2022-08-19T08:46:08.993Z,24.56
2022-08-19T08:47:18.164Z,24.53
2022-08-19T08:48:44.128Z,24.57
2022-08-19T08:50:05.336Z,24.69
2022-08-19T08:51:15.181Z,24.75
2022-08-19T08:52:31.828Z,24.81
2022-08-19T08:53:40.483Z,24.76
2022-08-19T08:54:48.776Z,24.74
2022-08-19T08:55:56.560Z,24.81
2022-08-19T08:56:58.589Z,24.76
2022-08-19T08:58:08.590Z,24.89
2022-08-19T08:59:29.046Z,25.04
2022-08-19T09:00:37.653Z,25.15
2022-08-19T09:01:40.496Z,25.15
2022-08-19T09:02:43.393Z,25.02
2022-08-19T09:03:46.415Z,25.13
2022-08-19T09:04:49.580Z,25.18
2022-08-19T09:06:13.559Z,25.19
2022-08-19T09:07:35.389Z,25.36
2022-08-19T09:08:46.447Z,25.39
2022-08-19T09:09:53.185Z,25.50
2022-08-19T09:10:58.583Z,25.46
2022-08-19T09:12:11.982Z,25.48
2022-08-19T09:13:38.945Z,25.57
2022-08-19T09:14:52.170Z,25.58
2022-08-19T09:16:05.561Z,25.41
2022-08-19T09:17:09.111Z,25.27
2022-08-19T09:18:15.142Z,25.07
2022-08-19T09:19:22.355Z,25.02
2022-08-19T09:20:26.207Z,25.03
2022-08-19T09:21:34.273Z,25.08
2022-08-19T09:22:40.532Z,25.10
2022-08-19T09:23:44.684Z,25.13
2022-08-19T09:24:46.713Z,25.23
2022-08-19T09:25:48.427Z,25.34
2022-08-19T09:26:52.975Z,25.46
2022-08-19T09:28:03.098Z,25.36
2022-08-19T09:29:07.804Z,25.29
2022-08-19T09:30:13.745Z,25.26
2022-08-19T09:31:19.065Z,25.08
2022-08-19T09:32:26.816Z,25.11
2022-08-19T09:33:28.838Z,25.18
2022-08-19T09:34:37.994Z,25.24
2022-08-19T09:35:53.030Z,25.32
2022-08-19T09:36:59.164Z,25.41
2022-08-19T09:38:01.373Z,25.46
2022-08-19T09:39:14.821Z,25.50
2022-08-19T09:40:18.887Z,25.51
2022-08-19T09:41:22.496Z,25.53
2022-08-19T09:42:30.287Z,25.49
2022-08-19T09:43:44.245Z,25.53
2022-08-19T09:44:46.930Z,25.64
2022-08-19T09:45:48.889Z,25.68
2022-08-19T09:46:51.866Z,25.64
2022-08-19T09:47:55.265Z,25.60
2022-08-19T09:49:06.039Z,25.53
2022-08-19T09:50:11.809Z,25.57
2022-08-19T09:51:22.303Z,25.59
2022-08-19T09:52:25.067Z,25.56
2022-08-19T09:53:35.962Z,25.70
2022-08-19T09:54:40.129Z,25.79
2022-08-19T09:55:46.202Z,25.91
2022-08-19T09:56:48.041Z,25.84
2022-08-19T09:57:49.791Z,25.89
2022-08-19T09:58:51.746Z,25.88
2022-08-19T09:59:54.428Z,25.91
2022-08-19T10:00:57.308Z,25.82
2022-08-19T10:02:03.653Z,25.75
2022-08-19T10:03:12.623Z,25.69
2022-08-19T10:04:14.710Z,25.70
2022-08-19T10:05:42.475Z,25.68
2022-08-19T10:06:46.242Z,25.69
2022-08-19T10:07:48.791Z,25.69
2022-08-19T10:08:50.753Z,25.69
2022-08-19T10:09:52.496Z,25.67
2022-08-19T10:10:56.429Z,25.62
2022-08-19T10:12:02.559Z,25.68
2022-08-19T10:13:04.932Z,25.51
2022-08-19T10:14:07.154Z,25.42
2022-08-19T10:15:09.333Z,25.40
2022-08-19T10:16:15.716Z,25.34
2022-08-19T10:17:20.743Z,25.38
2022-08-19T10:18:25.642Z,25.43
2022-08-19T10:19:29.217Z,25.46
2022-08-19T10:20:31.516Z,25.41
2022-08-19T10:21:35.350Z,25.33
2022-08-19T10:22:38.415Z,25.31
2022-08-19T10:23:46.193Z,25.34
2022-08-19T10:24:48.012Z,25.35
2022-08-19T10:25:50.727Z,25.41
2022-08-19T10:26:57.392Z,25.43
2022-08-19T10:28:01.517Z,25.49
2022-08-19T10:29:05.653Z,25.54
2022-08-19T10:30:09.857Z,25.52
2022-08-19T10:32:01.216Z,25.48
2022-08-19T10:32:46.926Z,25.49
2022-08-19T10:33:53.914Z,25.55
2022-08-19T10:34:57.407Z,25.59
2022-08-19T10:36:05.595Z,25.64
2022-08-19T10:37:10.741Z,25.57
2022-08-19T10:38:12.556Z,25.54
2022-08-19T10:39:14.259Z,25.60
2022-08-19T10:40:16.307Z,25.52
2022-08-19T10:41:26.424Z,25.42
2022-08-19T10:42:28.368Z,25.48
2022-08-19T10:43:29.992Z,25.40
2022-08-19T10:44:33.195Z,25.39
2022-08-19T10:45:34.840Z,25.44
2022-08-19T10:46:45.135Z,25.24
2022-08-19T10:47:50.261Z,25.18
2022-08-19T10:48:53.367Z,25.17
2022-08-19T10:50:14.433Z,25.02
2022-08-19T10:51:36.088Z,24.99
2022-08-19T10:52:50.932Z,25.12
2022-08-19T10:53:52.698Z,25.27
2022-08-19T10:55:13.318Z,25.27
2022-08-19T10:56:34.653Z,25.34
2022-08-19T10:57:59.420Z,25.27
2022-08-19T10:58:59.105Z,25.26
2022-08-19T11:00:00.724Z,25.22
2022-08-19T11:01:02.511Z,25.21
2022-08-19T11:02:07.486Z,25.19
2022-08-19T11:03:09.523Z,25.24
2022-08-19T11:04:14.692Z,25.35
2022-08-19T11:05:18.122Z,25.40
2022-08-19T11:06:21.528Z,25.33
2022-08-19T11:07:26.164Z,25.29
2022-08-19T11:08:28.536Z,25.19
2022-08-19T11:09:33.919Z,25.16
2022-08-19T11:10:37.363Z,25.19
2022-08-19T11:11:41.777Z,25.23
2022-08-19T11:12:43.626Z,25.27
2022-08-19T11:13:47.447Z,25.30
2022-08-19T11:14:50.900Z,25.38
2022-08-19T11:16:07.699Z,25.44
2022-08-19T11:17:10.276Z,25.53
2022-08-19T11:18:13.326Z,25.58
2022-08-19T11:19:18.110Z,25.63
2022-08-19T11:20:19.881Z,25.63
2022-08-19T11:21:33.145Z,25.67
2022-08-19T11:22:40.528Z,25.71
2022-08-19T11:23:44.372Z,25.67
2022-08-19T11:24:46.006Z,25.69
2022-08-19T11:25:47.687Z,25.69
2022-08-19T11:26:51.478Z,25.73
2022-08-19T11:27:53.489Z,25.72
2022-08-19T11:28:55.680Z,25.74
2022-08-19T11:29:57.465Z,25.88
2022-08-19T11:30:59.179Z,25.84
2022-08-19T11:32:04.261Z,25.92
2022-08-19T11:33:05.955Z,25.89
2022-08-19T11:34:10.728Z,26.04
2022-08-19T11:35:12.687Z,25.98
2022-08-19T11:36:15.154Z,26.02
2022-08-19T11:37:17.045Z,26.03
2022-08-19T11:38:19.406Z,26.05
2022-08-19T11:39:23.142Z,26.00
2022-08-19T11:40:24.875Z,25.98
2022-08-19T11:41:27.124Z,26.11
2022-08-19T11:42:47.103Z,26.12
2022-08-19T11:43:48.880Z,26.11
2022-08-19T11:44:51.046Z,26.12
2022-08-19T11:45:52.890Z,26.06
2022-08-19T11:46:54.741Z,26.05
2022-08-19T11:47:56.940Z,26.16
2022-08-19T11:49:00.356Z,26.14
2022-08-19T11:50:02.340Z,26.11
2022-08-19T11:51:10.290Z,26.01
2022-08-19T11:52:12.142Z,25.97
2022-08-19T11:53:13.810Z,26.06
2022-08-19T11:54:17.296Z,26.25
2022-08-19T11:55:20.410Z,26.34
2022-08-19T11:56:23.169Z,26.35
2022-08-19T11:57:24.934Z,26.36
2022-08-19T11:58:26.636Z,26.34
2022-08-19T11:59:28.434Z,26.31
2022-08-19T12:00:31.410Z,26.09
2022-08-19T12:01:33.149Z,26.01
2022-08-19T12:02:34.922Z,26.00
2022-08-19T12:03:37.543Z,25.97
2022-08-19T12:04:39.309Z,26.02
2022-08-19T12:05:41.690Z,25.99
2022-08-19T12:06:43.377Z,26.08
2022-08-19T12:07:45.083Z,26.11
2022-08-19T12:08:48.443Z,26.03
2022-08-19T12:09:50.152Z,26.08
2022-08-19T12:10:52.051Z,26.05
2022-08-19T12:11:53.807Z,25.93
2022-08-19T12:12:58.870Z,25.79
2022-08-19T12:14:00.924Z,25.79
2022-08-19T12:15:03.271Z,25.80
2022-08-19T12:16:11.786Z,25.89
2022-08-19T12:17:14.369Z,25.91
2022-08-19T12:18:16.119Z,25.93
2022-08-19T12:19:21.795Z,25.89
2022-08-19T12:20:25.673Z,25.85
2022-08-19T12:21:31.560Z,25.88
2022-08-19T12:22:33.226Z,25.87
2022-08-19T12:23:34.930Z,25.96
2022-08-19T12:24:36.829Z,26.02
2022-08-19T12:25:49.368Z,26.08
2022-08-19T12:26:52.782Z,26.07
2022-08-19T12:27:57.449Z,25.95
2022-08-19T12:29:00.494Z,25.87
2022-08-19T12:30:06.270Z,25.89
2022-08-19T12:31:09.121Z,25.97
2022-08-19T12:32:12.192Z,25.99
2022-08-19T12:33:15.047Z,25.90
2022-08-19T12:34:17.166Z,25.93
2022-08-19T12:35:20.934Z,25.91
2022-08-19T12:36:24.231Z,25.95
2022-08-19T12:37:26.088Z,25.90
2022-08-19T12:38:28.168Z,25.93
2022-08-19T12:39:31.422Z,25.87
2022-08-19T12:40:33.182Z,25.90
2022-08-19T12:41:34.894Z,25.87
2022-08-19T12:42:43.074Z,25.83
2022-08-19T12:43:45.272Z,25.75
2022-08-19T12:44:48.324Z,25.74
2022-08-19T12:45:50.143Z,25.72
2022-08-19T12:46:53.713Z,25.68
2022-08-19T12:47:55.913Z,25.68
2022-08-19T12:48:59.097Z,25.82
2022-08-19T12:50:09.530Z,25.70
2022-08-19T12:51:14.458Z,25.71
2022-08-19T12:52:22.942Z,25.68
2022-08-19T12:53:25.836Z,25.70
2022-08-19T12:54:30.503Z,25.73
2022-08-19T12:55:32.697Z,25.72
2022-08-19T12:56:34.495Z,25.69
2022-08-19T12:57:36.665Z,25.70
2022-08-19T12:58:38.519Z,25.75
2022-08-19T12:59:40.326Z,25.89
2022-08-19T13:00:42.154Z,25.98
2022-08-19T13:01:44.969Z,25.99
2022-08-19T13:02:50.702Z,25.96
2022-08-19T13:03:53.476Z,25.91
2022-08-19T13:04:55.392Z,25.93
2022-08-19T13:05:57.701Z,25.93
2022-08-19T13:06:59.739Z,25.85
2022-08-19T13:08:01.473Z,25.90
2022-08-19T13:09:04.147Z,25.87
2022-08-19T13:10:08.455Z,25.86
2022-08-19T13:11:15.768Z,25.92
2022-08-19T13:12:18.130Z,25.87
2022-08-19T13:13:19.935Z,25.73
2022-08-19T13:14:21.559Z,25.74
2022-08-19T13:15:24.761Z,25.58
2022-08-19T13:16:28.610Z,25.58
2022-08-19T13:17:30.299Z,25.52
2022-08-19T13:18:32.548Z,25.43
2022-08-19T13:19:34.240Z,25.39
2022-08-19T13:20:37.159Z,25.50
2022-08-19T13:21:39.430Z,25.58
2022-08-19T13:22:41.108Z,25.48
2022-08-19T13:23:42.950Z,25.59
2022-08-19T13:24:47.278Z,25.67
2022-08-19T13:26:00.100Z,25.78
2022-08-19T13:27:02.040Z,25.77
2022-08-19T13:28:04.994Z,25.71
2022-08-19T13:29:25.260Z,25.71
2022-08-19T13:30:45.616Z,25.77
2022-08-19T13:32:05.916Z,25.49
2022-08-19T13:33:11.855Z,25.37
2022-08-19T13:34:15.532Z,25.30
2022-08-19T13:35:17.606Z,25.42
2022-08-19T13:36:19.195Z,25.49
2022-08-19T13:37:40.880Z,25.48
2022-08-19T13:38:42.674Z,25.51
2022-08-19T13:39:46.089Z,25.59
2022-08-19T13:40:48.663Z,25.64
2022-08-19T13:41:50.974Z,25.72
2022-08-19T13:42:55.436Z,25.56
2022-08-19T13:43:57.296Z,25.68
2022-08-19T13:44:59.496Z,25.83
2022-08-19T13:46:01.469Z,25.90
2022-08-19T13:47:08.113Z,25.94
2022-08-19T13:48:10.087Z,25.95
2022-08-19T13:49:13.892Z,25.86
2022-08-19T13:50:18.683Z,25.83
2022-08-19T13:51:20.468Z,25.92
2022-08-19T13:52:22.136Z,25.87
2022-08-19T13:53:24.541Z,25.82
2022-08-19T13:54:28.086Z,25.81
2022-08-19T13:55:29.934Z,25.77
2022-08-19T13:56:31.698Z,25.78
2022-08-19T13:57:33.555Z,25.82
2022-08-19T13:58:35.379Z,25.73
2022-08-19T13:59:37.291Z,25.70
2022-08-19T14:00:44.844Z,25.63